Allen, Washington
Current Conditions -  °F | °C
As of 8:15 PM on Wednesday 26 Nov 2014 (Local Time) from KBVS Reporting Station
Broken Clouds Broken Clouds  
Wind Chill: 61°   Ceiling: 9000
Heat Index: 61°   Visibility: 10mi
Dew Point: 52°   Wind: 10mph
Humidity: 72%   Direction: 150°SSE
Pressure: 29.84"   Gusts: 22mph
Location:  48.5689°N, 122.407°W
Report Text: KBVS 270415Z AUTO 15009G19KT 10SM SCT033 SCT075 BKN090 16/11 A2984 RMK A01 P000
Loading
Personal Weather Stations






























Interactive Weather Map New forecast layout! Learn more

10-Day Weather Forecast

Advertisements
Track Severe Weather on mobile